LIFSTR2 -KFLL
Flight info
| Callsign | LIFSTR2 |
|---|---|
| Flight time | N/A |
| Altitude | |
| Route | |
| Aircraft | EC45/L-DOV/C |
Departure
| Time | N/A |
|---|---|
| Airport | - |
Arrival
| Time | 2026-05-04 04:02 |
|---|---|
| Airport | Fort Lauderdale Hollywood International Airport (KFLL) |
| Time | Latitude | Longitude | Altitude | Speed | Heading |
|---|---|---|---|---|---|
| 2026-05-04 03:32 | 26.46173 | -79.00035 | 635 ft | 81 kts | 241° |
| 2026-05-04 03:32 | 26.45946 | -79.00576 | 998 ft | 72 kts | 242° |
| 2026-05-04 03:32 | 26.45744 | -79.01089 | 1338 ft | 76 kts | 241° |
| 2026-05-04 03:32 | 26.45524 | -79.01654 | 1605 ft | 82 kts | 239° |
| 2026-05-04 03:33 | 26.45291 | -79.02241 | 1549 ft | 83 kts | 240° |
| 2026-05-04 03:33 | 26.45061 | -79.02833 | 1518 ft | 84 kts | 241° |
| 2026-05-04 03:33 | 26.44823 | -79.03462 | 1500 ft | 91 kts | 243° |
| 2026-05-04 03:33 | 26.44660 | -79.03905 | 1499 ft | 95 kts | 244° |
| 2026-05-04 03:34 | 26.44407 | -79.04606 | 1495 ft | 99 kts | 245° |
| 2026-05-04 03:34 | 26.44150 | -79.05333 | 1494 ft | 102 kts | 245° |
| 2026-05-04 03:34 | 26.43889 | -79.06077 | 1490 ft | 103 kts | 246° |
| 2026-05-04 03:34 | 26.43630 | -79.06824 | 1492 ft | 103 kts | 246° |
| 2026-05-04 03:35 | 26.43373 | -79.07573 | 1486 ft | 103 kts | 246° |
| 2026-05-04 03:35 | 26.43117 | -79.08324 | 1490 ft | 103 kts | 246° |
| 2026-05-04 03:35 | 26.42863 | -79.09073 | 1495 ft | 103 kts | 244° |
| 2026-05-04 03:35 | 26.42612 | -79.09818 | 1482 ft | 102 kts | 246° |
| 2026-05-04 03:36 | 26.42362 | -79.10566 | 1489 ft | 103 kts | 247° |
| 2026-05-04 03:36 | 26.42114 | -79.11309 | 1487 ft | 104 kts | 246° |
| 2026-05-04 03:36 | 26.41861 | -79.12068 | 1487 ft | 104 kts | 246° |
| 2026-05-04 03:36 | 26.41608 | -79.12829 | 1488 ft | 105 kts | 246° |
| 2026-05-04 03:37 | 26.41354 | -79.13590 | 1491 ft | 104 kts | 246° |
| 2026-05-04 03:37 | 26.41100 | -79.14348 | 1492 ft | 104 kts | 245° |
| 2026-05-04 03:37 | 26.40849 | -79.15099 | 1490 ft | 103 kts | 246° |
| 2026-05-04 03:37 | 26.40600 | -79.15846 | 1488 ft | 102 kts | 246° |
| 2026-05-04 03:38 | 26.40351 | -79.16591 | 1490 ft | 103 kts | 245° |
| 2026-05-04 03:38 | 26.40102 | -79.17337 | 1484 ft | 103 kts | 247° |
| 2026-05-04 03:38 | 26.39853 | -79.18088 | 1488 ft | 103 kts | 247° |
| 2026-05-04 03:38 | 26.39603 | -79.18843 | 1492 ft | 104 kts | 246° |
| 2026-05-04 03:39 | 26.39354 | -79.19589 | 1492 ft | 103 kts | 246° |
| 2026-05-04 03:39 | 26.39101 | -79.20349 | 1492 ft | 103 kts | 246° |
| 2026-05-04 03:39 | 26.38856 | -79.21087 | 1493 ft | 103 kts | 246° |
| 2026-05-04 03:39 | 26.38607 | -79.21833 | 1493 ft | 102 kts | 246° |
| 2026-05-04 03:40 | 26.38359 | -79.22575 | 1492 ft | 102 kts | 246° |
| 2026-05-04 03:40 | 26.38113 | -79.23316 | 1492 ft | 102 kts | 247° |
| 2026-05-04 03:40 | 26.37864 | -79.24068 | 1483 ft | 109 kts | 246° |
| 2026-05-04 03:40 | 26.37583 | -79.24924 | 1486 ft | 124 kts | 245° |
| 2026-05-04 03:41 | 26.37275 | -79.25870 | 1484 ft | 134 kts | 246° |
| 2026-05-04 03:41 | 26.36949 | -79.26873 | 1487 ft | 141 kts | 247° |
| 2026-05-04 03:41 | 26.36608 | -79.27914 | 1489 ft | 145 kts | 247° |
| 2026-05-04 03:41 | 26.36259 | -79.28974 | 1490 ft | 146 kts | 248° |
| 2026-05-04 03:42 | 26.35907 | -79.30039 | 1492 ft | 147 kts | 246° |
| 2026-05-04 03:42 | 26.35552 | -79.31109 | 1492 ft | 147 kts | 248° |
| 2026-05-04 03:42 | 26.35200 | -79.32168 | 1494 ft | 148 kts | 247° |
| 2026-05-04 03:42 | 26.34842 | -79.33250 | 1495 ft | 149 kts | 248° |
| 2026-05-04 03:43 | 26.34482 | -79.34334 | 1494 ft | 149 kts | 248° |
| 2026-05-04 03:43 | 26.34118 | -79.35420 | 1496 ft | 149 kts | 247° |
| 2026-05-04 03:43 | 26.33755 | -79.36501 | 1490 ft | 148 kts | 246° |
| 2026-05-04 03:43 | 26.33395 | -79.37573 | 1496 ft | 147 kts | 248° |
| 2026-05-04 03:44 | 26.33036 | -79.38644 | 1494 ft | 147 kts | 247° |
| 2026-05-04 03:44 | 26.32677 | -79.39719 | 1496 ft | 148 kts | 247° |
| 2026-05-04 03:44 | 26.32315 | -79.40800 | 1498 ft | 149 kts | 248° |
| 2026-05-04 03:44 | 26.31957 | -79.41868 | 1497 ft | 149 kts | 248° |
| 2026-05-04 03:45 | 26.31595 | -79.42944 | 1497 ft | 148 kts | 248° |
| 2026-05-04 03:45 | 26.31235 | -79.44017 | 1495 ft | 147 kts | 248° |
| 2026-05-04 03:45 | 26.30877 | -79.45090 | 1492 ft | 148 kts | 248° |
| 2026-05-04 03:45 | 26.30517 | -79.46167 | 1493 ft | 149 kts | 247° |
| 2026-05-04 03:46 | 26.30155 | -79.47249 | 1492 ft | 149 kts | 248° |
| 2026-05-04 03:46 | 26.29791 | -79.48332 | 1494 ft | 149 kts | 247° |
| 2026-05-04 03:46 | 26.29427 | -79.49414 | 1495 ft | 149 kts | 248° |
| 2026-05-04 03:46 | 26.29064 | -79.50491 | 1494 ft | 148 kts | 248° |
| 2026-05-04 03:47 | 26.28707 | -79.51551 | 1494 ft | 148 kts | 248° |
| 2026-05-04 03:47 | 26.28347 | -79.52626 | 1497 ft | 148 kts | 248° |
| 2026-05-04 03:47 | 26.27988 | -79.53702 | 1496 ft | 148 kts | 248° |
| 2026-05-04 03:47 | 26.27626 | -79.54780 | 1500 ft | 149 kts | 248° |
| 2026-05-04 03:48 | 26.27264 | -79.55859 | 1499 ft | 149 kts | 248° |
| 2026-05-04 03:48 | 26.26901 | -79.56941 | 1503 ft | 149 kts | 248° |
| 2026-05-04 03:48 | 26.26537 | -79.58022 | 1499 ft | 149 kts | 248° |
| 2026-05-04 03:48 | 26.26201 | -79.59018 | 1497 ft | 148 kts | 248° |
| 2026-05-04 03:49 | 26.25839 | -79.60090 | 1502 ft | 148 kts | 248° |
| 2026-05-04 03:49 | 26.25479 | -79.61163 | 1499 ft | 148 kts | 248° |
| 2026-05-04 03:49 | 26.25116 | -79.62240 | 1499 ft | 148 kts | 249° |
| 2026-05-04 03:49 | 26.24754 | -79.63318 | 1497 ft | 148 kts | 248° |
| 2026-05-04 03:50 | 26.24396 | -79.64378 | 1500 ft | 148 kts | 249° |
| 2026-05-04 03:50 | 26.24034 | -79.65450 | 1497 ft | 147 kts | 248° |
| 2026-05-04 03:50 | 26.23674 | -79.66518 | 1498 ft | 147 kts | 248° |
| 2026-05-04 03:50 | 26.23315 | -79.67586 | 1498 ft | 147 kts | 249° |
| 2026-05-04 03:51 | 26.22954 | -79.68655 | 1495 ft | 148 kts | 249° |
| 2026-05-04 03:51 | 26.22592 | -79.69728 | 1498 ft | 148 kts | 249° |
| 2026-05-04 03:51 | 26.22230 | -79.70800 | 1495 ft | 147 kts | 249° |
| 2026-05-04 03:51 | 26.21869 | -79.71868 | 1495 ft | 147 kts | 249° |
| 2026-05-04 03:52 | 26.21513 | -79.72920 | 1493 ft | 147 kts | 249° |
| 2026-05-04 03:52 | 26.21154 | -79.73986 | 1498 ft | 147 kts | 249° |
| 2026-05-04 03:52 | 26.20794 | -79.75050 | 1499 ft | 147 kts | 249° |
| 2026-05-04 03:52 | 26.20435 | -79.76114 | 1503 ft | 147 kts | 249° |
| 2026-05-04 03:53 | 26.20076 | -79.77179 | 1497 ft | 147 kts | 249° |
| 2026-05-04 03:53 | 26.19716 | -79.78244 | 1499 ft | 147 kts | 249° |
| 2026-05-04 03:53 | 26.19357 | -79.79305 | 1500 ft | 146 kts | 249° |
| 2026-05-04 03:53 | 26.18998 | -79.80365 | 1503 ft | 146 kts | 249° |
| 2026-05-04 03:54 | 26.18640 | -79.81422 | 1502 ft | 146 kts | 249° |
| 2026-05-04 03:54 | 26.18282 | -79.82481 | 1503 ft | 146 kts | 249° |
| 2026-05-04 03:54 | 26.17929 | -79.83522 | 1502 ft | 146 kts | 250° |
| 2026-05-04 03:54 | 26.17572 | -79.84578 | 1503 ft | 145 kts | 249° |
| 2026-05-04 03:55 | 26.17215 | -79.85632 | 1505 ft | 145 kts | 250° |
| 2026-05-04 03:55 | 26.16857 | -79.86685 | 1501 ft | 145 kts | 250° |
| 2026-05-04 03:55 | 26.16503 | -79.87733 | 1503 ft | 145 kts | 249° |
| 2026-05-04 03:55 | 26.16147 | -79.88783 | 1502 ft | 145 kts | 250° |
| 2026-05-04 03:56 | 26.15791 | -79.89833 | 1506 ft | 145 kts | 249° |
| 2026-05-04 03:56 | 26.15439 | -79.90872 | 1505 ft | 145 kts | 250° |
| 2026-05-04 03:56 | 26.15081 | -79.91923 | 1502 ft | 145 kts | 249° |
| 2026-05-04 03:56 | 26.14725 | -79.92970 | 1508 ft | 145 kts | 249° |
| 2026-05-04 03:57 | 26.14398 | -79.93935 | 1504 ft | 144 kts | 249° |
| 2026-05-04 03:57 | 26.14043 | -79.94981 | 1510 ft | 144 kts | 249° |
| 2026-05-04 03:57 | 26.13688 | -79.96026 | 1506 ft | 145 kts | 249° |
| 2026-05-04 03:57 | 26.13332 | -79.97074 | 1504 ft | 145 kts | 250° |
| 2026-05-04 03:58 | 26.12618 | -79.99173 | 1511 ft | 145 kts | 249° |
| 2026-05-04 03:58 | 26.12262 | -80.00221 | 1509 ft | 144 kts | 249° |
| 2026-05-04 03:58 | 26.11907 | -80.01266 | 1505 ft | 144 kts | 249° |
| 2026-05-04 03:59 | 26.11555 | -80.02299 | 1509 ft | 144 kts | 249° |
| 2026-05-04 03:59 | 26.11199 | -80.03344 | 1510 ft | 144 kts | 249° |
| 2026-05-04 03:59 | 26.10842 | -80.04391 | 1510 ft | 145 kts | 249° |
| 2026-05-04 03:59 | 26.10486 | -80.05437 | 1510 ft | 145 kts | 249° |
| 2026-05-04 04:00 | 26.10129 | -80.06485 | 1512 ft | 145 kts | 249° |
| 2026-05-04 04:00 | 26.09773 | -80.07533 | 1510 ft | 145 kts | 249° |
| 2026-05-04 04:00 | 26.09405 | -80.08555 | 1155 ft | 140 kts | 246° |
| 2026-05-04 04:00 | 26.08991 | -80.09504 | 863 ft | 132 kts | 244° |
| 2026-05-04 04:01 | 26.08557 | -80.10345 | 778 ft | 121 kts | 241° |
| 2026-05-04 04:01 | 26.08104 | -80.11106 | 717 ft | 114 kts | 239° |
| 2026-05-04 04:01 | 26.07758 | -80.11751 | 934 ft | 80 kts | 247° |
| 2026-05-04 04:01 | 26.07574 | -80.12231 | 1049 ft | 56 kts | 256° |
| 2026-05-04 04:02 | 26.07500 | -80.12582 | 1059 ft | 39 kts | 269° |
| 2026-05-04 04:02 | 26.07462 | -80.12836 | 970 ft | 28 kts | 261° |
| 2026-05-04 04:02 | 26.07400 | -80.13005 | 807 ft | 21 kts | 276° |
| 2026-05-04 04:02 | 26.07319 | -80.13133 | 642 ft | 19 kts | 277° |
| 2026-05-04 04:03 | 26.07347 | -80.13286 | 553 ft | 33 kts | 281° |
| 2026-05-04 04:03 | 26.07397 | -80.13652 | 555 ft | 59 kts | 274° |
| 2026-05-04 04:03 | 26.07441 | -80.14136 | 473 ft | 66 kts | 276° |
| 2026-05-04 04:03 | 26.07496 | -80.14663 | 381 ft | 71 kts | 282° |
| 2026-05-04 04:04 | 26.07589 | -80.15211 | 336 ft | 73 kts | 283° |
| 2026-05-04 04:04 | 26.07667 | -80.15776 | 237 ft | 75 kts | 281° |
| 2026-05-04 04:04 | 26.07716 | -80.16307 | 201 ft | 55 kts | 322° |
| 2026-05-04 04:04 | 26.07815 | -80.16602 | 62 ft | 26 kts | 78° |
| 2026-05-04 04:05 | 26.07881 | -80.16662 | 69 ft | 1 kts | 98° |
| 2026-05-04 04:05 | 26.07867 | -80.16629 | 45 ft | 10 kts | 96° |
| 2026-05-04 04:05 | 26.07866 | -80.16509 | 107 ft | 17 kts | 91° |
| 2026-05-04 04:05 | 26.07866 | -80.16428 | 20 ft | 6 kts | 94° |
| 2026-05-04 04:06 | 26.07863 | -80.16425 | 15 ft | 0 kts | 106° |
| 2026-05-04 04:06 | 26.07866 | -80.16423 | 15 ft | 0 kts | 184° |
| 2026-05-04 04:08 | 26.07861 | -80.16423 | 37 ft | 7 kts | 132° |
| 2026-05-04 04:08 | 26.07834 | -80.16252 | 176 ft | 32 kts | 139° |
| 2026-05-04 04:08 | 26.07759 | -80.15957 | 410 ft | 46 kts | 117° |
| 2026-05-04 04:08 | 26.07696 | -80.15608 | 374 ft | 40 kts | 182° |